Terminal Aerodrome Forecast
Issued by NWS

Home | Current Version | Previous Version | Text Only | Print | Product List | Glossary On
Versions: 1 2 3 4 5 6 7 8 9 10 11 12
000
FTUS42 KTAE 171120
TAFECP
TAF
KECP 171120Z 1712/1812 VRB05KT P6SM BKN250
     FM171500 13008KT P6SM BKN050
     FM180300 16006KT 3SM BR OVC007
     FM180600 16006KT 1SM BR OVC003=

USA.gov is the U.S. government's official web portal to all federal, state and local government web resources and services.